sensor_id;sensor_type;location;lat;lon;timestamp;P1;durP1;ratioP1;P2;durP2;ratioP2
38435;SDS011;24220;48.168;14.024;2023-07-31T00:02:01;4.00;;;2.60;;
38435;SDS011;24220;48.168;14.024;2023-07-31T00:04:30;4.53;;;2.58;;
38435;SDS011;24220;48.168;14.024;2023-07-31T00:06:58;2.90;;;2.25;;
38435;SDS011;24220;48.168;14.024;2023-07-31T00:09:27;3.00;;;2.20;;
38435;SDS011;24220;48.168;14.024;2023-07-31T00:11:57;2.92;;;2.33;;
38435;SDS011;24220;48.168;14.024;2023-07-31T00:14:29;2.97;;;2.38;;
38435;SDS011;24220;48.168;14.024;2023-07-31T00:16:56;2.28;;;2.08;;
38435;SDS011;24220;48.168;14.024;2023-07-31T00:19:26;2.42;;;2.10;;
38435;SDS011;24220;48.168;14.024;2023-07-31T00:21:53;3.60;;;2.28;;
38435;SDS011;24220;48.168;14.024;2023-07-31T00:24:20;2.55;;;2.35;;
38435;SDS011;24220;48.168;14.024;2023-07-31T00:26:50;3.83;;;2.30;;
38435;SDS011;24220;48.168;14.024;2023-07-31T00:29:20;2.65;;;2.28;;
38435;SDS011;24220;48.168;14.024;2023-07-31T00:31:47;2.95;;;2.42;;
38435;SDS011;24220;48.168;14.024;2023-07-31T00:34:17;2.85;;;2.35;;
38435;SDS011;24220;48.168;14.024;2023-07-31T00:36:46;4.10;;;2.35;;
38435;SDS011;24220;48.168;14.024;2023-07-31T00:39:13;3.42;;;2.70;;
38435;SDS011;24220;48.168;14.024;2023-07-31T00:41:43;2.40;;;2.20;;
38435;SDS011;24220;48.168;14.024;2023-07-31T00:44:13;5.40;;;2.35;;
38435;SDS011;24220;48.168;14.024;2023-07-31T00:46:40;2.95;;;2.28;;
38435;SDS011;24220;48.168;14.024;2023-07-31T00:49:08;2.58;;;2.38;;
38435;SDS011;24220;48.168;14.024;2023-07-31T00:51:36;4.00;;;2.50;;
38435;SDS011;24220;48.168;14.024;2023-07-31T00:54:03;2.60;;;2.40;;
38435;SDS011;24220;48.168;14.024;2023-07-31T00:56:35;2.50;;;2.30;;
38435;SDS011;24220;48.168;14.024;2023-07-31T00:59:05;2.42;;;2.22;;
38435;SDS011;24220;48.168;14.024;2023-07-31T01:01:35;2.50;;;2.20;;
38435;SDS011;24220;48.168;14.024;2023-07-31T01:04:03;2.35;;;2.03;;
38435;SDS011;24220;48.168;14.024;2023-07-31T01:12:02;2.50;;;2.28;;
38435;SDS011;24220;48.168;14.024;2023-07-31T01:14:32;2.70;;;2.50;;
38435;SDS011;24220;48.168;14.024;2023-07-31T01:17:02;2.80;;;2.47;;
38435;SDS011;24220;48.168;14.024;2023-07-31T01:19:32;3.45;;;2.40;;
38435;SDS011;24220;48.168;14.024;2023-07-31T01:27:25;2.25;;;2.03;;
38435;SDS011;24220;48.168;14.024;2023-07-31T01:32:43;3.78;;;2.17;;
38435;SDS011;24220;48.168;14.024;2023-07-31T01:35:16;2.75;;;2.40;;
38435;SDS011;24220;48.168;14.024;2023-07-31T01:37:46;3.58;;;2.30;;
38435;SDS011;24220;48.168;14.024;2023-07-31T01:40:21;2.75;;;2.05;;
38435;SDS011;24220;48.168;14.024;2023-07-31T01:42:48;2.42;;;2.10;;
38435;SDS011;24220;48.168;14.024;2023-07-31T01:45:18;2.45;;;2.17;;
38435;SDS011;24220;48.168;14.024;2023-07-31T01:47:45;2.35;;;1.98;;
38435;SDS011;24220;48.168;14.024;2023-07-31T01:50:13;2.63;;;2.33;;
38435;SDS011;24220;48.168;14.024;2023-07-31T01:52:43;2.40;;;1.95;;
38435;SDS011;24220;48.168;14.024;2023-07-31T01:55:10;2.95;;;2.22;;
38435;SDS011;24220;48.168;14.024;2023-07-31T01:57:40;2.30;;;2.10;;
38435;SDS011;24220;48.168;14.024;2023-07-31T02:00:08;2.20;;;1.92;;
38435;SDS011;24220;48.168;14.024;2023-07-31T02:02:36;2.30;;;2.10;;
38435;SDS011;24220;48.168;14.024;2023-07-31T02:05:05;3.08;;;1.95;;
38435;SDS011;24220;48.168;14.024;2023-07-31T02:07:33;2.92;;;1.90;;
38435;SDS011;24220;48.168;14.024;2023-07-31T02:10:00;2.58;;;2.15;;
38435;SDS011;24220;48.168;14.024;2023-07-31T02:12:28;2.20;;;1.90;;
38435;SDS011;24220;48.168;14.024;2023-07-31T02:14:57;2.60;;;2.30;;
38435;SDS011;24220;48.168;14.024;2023-07-31T02:17:27;4.35;;;2.10;;
38435;SDS011;24220;48.168;14.024;2023-07-31T02:19:56;2.10;;;1.85;;
38435;SDS011;24220;48.168;14.024;2023-07-31T02:22:23;3.53;;;2.10;;
38435;SDS011;24220;48.168;14.024;2023-07-31T02:24:53;2.28;;;2.00;;
38435;SDS011;24220;48.168;14.024;2023-07-31T02:27:20;2.30;;;2.00;;
38435;SDS011;24220;48.168;14.024;2023-07-31T02:29:53;3.20;;;2.10;;
38435;SDS011;24220;48.168;14.024;2023-07-31T02:32:21;2.00;;;1.90;;
38435;SDS011;24220;48.168;14.024;2023-07-31T02:34:48;2.20;;;1.90;;
38435;SDS011;24220;48.168;14.024;2023-07-31T02:37:15;2.88;;;1.83;;
38435;SDS011;24220;48.168;14.024;2023-07-31T02:39:45;2.45;;;2.25;;
38435;SDS011;24220;48.168;14.024;2023-07-31T02:42:15;3.05;;;2.00;;
38435;SDS011;24220;48.168;14.024;2023-07-31T02:44:45;3.85;;;2.13;;
38435;SDS011;24220;48.168;14.024;2023-07-31T02:47:17;5.00;;;2.15;;
38435;SDS011;24220;48.168;14.024;2023-07-31T02:49:46;1.95;;;1.75;;
38435;SDS011;24220;48.168;14.024;2023-07-31T02:52:14;2.28;;;1.88;;
38435;SDS011;24220;48.168;14.024;2023-07-31T02:54:41;2.42;;;1.83;;
38435;SDS011;24220;48.168;14.024;2023-07-31T02:57:08;2.72;;;1.80;;
38435;SDS011;24220;48.168;14.024;2023-07-31T02:59:38;4.28;;;2.38;;
38435;SDS011;24220;48.168;14.024;2023-07-31T03:02:05;3.15;;;2.13;;
38435;SDS011;24220;48.168;14.024;2023-07-31T03:04:35;1.98;;;1.73;;
38435;SDS011;24220;48.168;14.024;2023-07-31T03:07:02;3.05;;;1.90;;
38435;SDS011;24220;48.168;14.024;2023-07-31T03:09:29;3.42;;;2.00;;
38435;SDS011;24220;48.168;14.024;2023-07-31T03:11:59;2.55;;;2.35;;
38435;SDS011;24220;48.168;14.024;2023-07-31T03:14:27;2.42;;;2.17;;
38435;SDS011;24220;48.168;14.024;2023-07-31T03:16:54;4.07;;;3.78;;
38435;SDS011;24220;48.168;14.024;2023-07-31T03:19:22;2.08;;;1.88;;
38435;SDS011;24220;48.168;14.024;2023-07-31T03:21:49;2.08;;;1.88;;
38435;SDS011;24220;48.168;14.024;2023-07-31T03:24:19;2.83;;;2.17;;
38435;SDS011;24220;48.168;14.024;2023-07-31T03:26:53;2.67;;;2.13;;
38435;SDS011;24220;48.168;14.024;2023-07-31T03:29:20;2.47;;;2.20;;
38435;SDS011;24220;48.168;14.024;2023-07-31T03:31:50;2.08;;;1.98;;
38435;SDS011;24220;48.168;14.024;2023-07-31T03:34:20;2.40;;;2.20;;
38435;SDS011;24220;48.168;14.024;2023-07-31T03:36:47;2.40;;;2.20;;
38435;SDS011;24220;48.168;14.024;2023-07-31T03:39:14;2.58;;;2.10;;
38435;SDS011;24220;48.168;14.024;2023-07-31T03:41:44;4.05;;;2.20;;
38435;SDS011;24220;48.168;14.024;2023-07-31T03:44:11;2.92;;;2.40;;
38435;SDS011;24220;48.168;14.024;2023-07-31T03:46:41;4.43;;;2.25;;
38435;SDS011;24220;48.168;14.024;2023-07-31T03:49:10;2.75;;;2.10;;
38435;SDS011;24220;48.168;14.024;2023-07-31T03:51:40;3.13;;;2.17;;
38435;SDS011;24220;48.168;14.024;2023-07-31T03:54:09;2.42;;;1.90;;
38435;SDS011;24220;48.168;14.024;2023-07-31T03:56:40;2.58;;;1.92;;
38435;SDS011;24220;48.168;14.024;2023-07-31T03:59:12;4.30;;;2.30;;
38435;SDS011;24220;48.168;14.024;2023-07-31T04:01:42;5.05;;;4.53;;
38435;SDS011;24220;48.168;14.024;2023-07-31T04:04:09;2.25;;;2.00;;
38435;SDS011;24220;48.168;14.024;2023-07-31T04:06:39;3.65;;;1.92;;
38435;SDS011;24220;48.168;14.024;2023-07-31T04:09:09;2.50;;;2.03;;
38435;SDS011;24220;48.168;14.024;2023-07-31T04:11:36;3.10;;;2.20;;
38435;SDS011;24220;48.168;14.024;2023-07-31T04:14:06;2.35;;;2.03;;
38435;SDS011;24220;48.168;14.024;2023-07-31T04:16:33;4.50;;;2.38;;
38435;SDS011;24220;48.168;14.024;2023-07-31T04:19:03;4.20;;;2.28;;
38435;SDS011;24220;48.168;14.024;2023-07-31T04:21:31;2.67;;;1.73;;
38435;SDS011;24220;48.168;14.024;2023-07-31T04:23:58;2.63;;;2.00;;
38435;SDS011;24220;48.168;14.024;2023-07-31T04:26:28;6.30;;;2.30;;
38435;SDS011;24220;48.168;14.024;2023-07-31T04:28:55;3.47;;;2.30;;
38435;SDS011;24220;48.168;14.024;2023-07-31T04:31:22;2.55;;;2.10;;
38435;SDS011;24220;48.168;14.024;2023-07-31T04:33:50;2.53;;;1.80;;
38435;SDS011;24220;48.168;14.024;2023-07-31T04:36:17;2.10;;;1.90;;
38435;SDS011;24220;48.168;14.024;2023-07-31T04:38:44;2.88;;;1.88;;
38435;SDS011;24220;48.168;14.024;2023-07-31T04:41:19;3.83;;;2.20;;
38435;SDS011;24220;48.168;14.024;2023-07-31T04:43:46;3.10;;;2.00;;
38435;SDS011;24220;48.168;14.024;2023-07-31T04:46:14;2.95;;;2.05;;
38435;SDS011;24220;48.168;14.024;2023-07-31T04:48:42;3.00;;;1.95;;
38435;SDS011;24220;48.168;14.024;2023-07-31T04:51:09;2.95;;;2.33;;
38435;SDS011;24220;48.168;14.024;2023-07-31T04:53:39;2.65;;;2.00;;
38435;SDS011;24220;48.168;14.024;2023-07-31T04:56:09;2.97;;;2.10;;
38435;SDS011;24220;48.168;14.024;2023-07-31T04:58:36;2.58;;;2.00;;
38435;SDS011;24220;48.168;14.024;2023-07-31T05:01:08;2.92;;;2.05;;
38435;SDS011;24220;48.168;14.024;2023-07-31T05:03:37;2.78;;;2.05;;
38435;SDS011;24220;48.168;14.024;2023-07-31T05:06:07;3.35;;;1.88;;
38435;SDS011;24220;48.168;14.024;2023-07-31T05:08:40;3.17;;;2.00;;
38435;SDS011;24220;48.168;14.024;2023-07-31T05:11:12;2.38;;;2.03;;
38435;SDS011;24220;48.168;14.024;2023-07-31T05:13:39;3.95;;;2.22;;
38435;SDS011;24220;48.168;14.024;2023-07-31T05:16:09;4.72;;;2.35;;
38435;SDS011;24220;48.168;14.024;2023-07-31T05:18:36;3.20;;;2.03;;
38435;SDS011;24220;48.168;14.024;2023-07-31T05:21:06;4.82;;;2.05;;
38435;SDS011;24220;48.168;14.024;2023-07-31T05:23:36;5.85;;;2.38;;
38435;SDS011;24220;48.168;14.024;2023-07-31T05:26:08;2.78;;;2.10;;
38435;SDS011;24220;48.168;14.024;2023-07-31T05:28:44;2.97;;;1.90;;
38435;SDS011;24220;48.168;14.024;2023-07-31T05:31:14;2.13;;;1.77;;
38435;SDS011;24220;48.168;14.024;2023-07-31T05:33:44;3.33;;;2.05;;
38435;SDS011;24220;48.168;14.024;2023-07-31T05:36:13;2.08;;;1.80;;
38435;SDS011;24220;48.168;14.024;2023-07-31T05:38:43;2.60;;;1.85;;
38435;SDS011;24220;48.168;14.024;2023-07-31T05:41:13;3.58;;;2.30;;
38435;SDS011;24220;48.168;14.024;2023-07-31T05:43:43;3.55;;;2.00;;
38435;SDS011;24220;48.168;14.024;2023-07-31T05:46:14;3.33;;;2.10;;
38435;SDS011;24220;48.168;14.024;2023-07-31T05:48:42;2.95;;;1.80;;
38435;SDS011;24220;48.168;14.024;2023-07-31T05:51:11;4.95;;;2.03;;
38435;SDS011;24220;48.168;14.024;2023-07-31T05:53:39;3.03;;;1.70;;
38435;SDS011;24220;48.168;14.024;2023-07-31T05:56:07;2.28;;;2.08;;
38435;SDS011;24220;48.168;14.024;2023-07-31T05:58:37;2.80;;;1.70;;
38435;SDS011;24220;48.168;14.024;2023-07-31T06:01:04;2.78;;;2.10;;
38435;SDS011;24220;48.168;14.024;2023-07-31T06:03:32;3.63;;;1.88;;
38435;SDS011;24220;48.168;14.024;2023-07-31T06:05:59;3.90;;;2.20;;
38435;SDS011;24220;48.168;14.024;2023-07-31T06:08:27;2.10;;;1.90;;
38435;SDS011;24220;48.168;14.024;2023-07-31T06:10:56;7.07;;;2.50;;
38435;SDS011;24220;48.168;14.024;2023-07-31T06:13:23;4.72;;;2.10;;
38435;SDS011;24220;48.168;14.024;2023-07-31T06:15:53;2.53;;;2.33;;
38435;SDS011;24220;48.168;14.024;2023-07-31T06:18:20;2.10;;;1.90;;
38435;SDS011;24220;48.168;14.024;2023-07-31T06:20:50;3.40;;;1.80;;
38435;SDS011;24220;48.168;14.024;2023-07-31T06:23:20;3.10;;;1.80;;
38435;SDS011;24220;48.168;14.024;2023-07-31T06:25:47;4.57;;;2.10;;
38435;SDS011;24220;48.168;14.024;2023-07-31T06:28:15;3.65;;;1.90;;
38435;SDS011;24220;48.168;14.024;2023-07-31T06:30:47;2.55;;;1.70;;
38435;SDS011;24220;48.168;14.024;2023-07-31T06:33:16;2.78;;;1.70;;
38435;SDS011;24220;48.168;14.024;2023-07-31T06:35:44;2.33;;;1.80;;
38435;SDS011;24220;48.168;14.024;2023-07-31T06:38:12;2.53;;;1.80;;
38435;SDS011;24220;48.168;14.024;2023-07-31T06:40:42;2.78;;;1.58;;
38435;SDS011;24220;48.168;14.024;2023-07-31T06:43:11;5.07;;;1.85;;
38435;SDS011;24220;48.168;14.024;2023-07-31T06:45:41;4.15;;;2.28;;
38435;SDS011;24220;48.168;14.024;2023-07-31T06:48:11;3.88;;;1.90;;
38435;SDS011;24220;48.168;14.024;2023-07-31T06:50:39;4.18;;;1.60;;
38435;SDS011;24220;48.168;14.024;2023-07-31T06:53:06;2.95;;;1.60;;
38435;SDS011;24220;48.168;14.024;2023-07-31T06:55:33;4.18;;;1.80;;
38435;SDS011;24220;48.168;14.024;2023-07-31T06:58:01;1.92;;;1.50;;
38435;SDS011;24220;48.168;14.024;2023-07-31T07:00:28;3.33;;;1.58;;
38435;SDS011;24220;48.168;14.024;2023-07-31T07:02:59;2.87;;;1.77;;
38435;SDS011;24220;48.168;14.024;2023-07-31T07:05:26;3.00;;;1.60;;
38435;SDS011;24220;48.168;14.024;2023-07-31T07:07:56;3.33;;;2.10;;
38435;SDS011;24220;48.168;14.024;2023-07-31T07:10:25;2.17;;;1.33;;
38435;SDS011;24220;48.168;14.024;2023-07-31T07:12:55;3.67;;;2.15;;
38435;SDS011;24220;48.168;14.024;2023-07-31T07:15:22;2.40;;;1.63;;
38435;SDS011;24220;48.168;14.024;2023-07-31T07:17:52;2.85;;;1.83;;
38435;SDS011;24220;48.168;14.024;2023-07-31T07:20:20;4.07;;;2.05;;
38435;SDS011;24220;48.168;14.024;2023-07-31T07:22:49;1.73;;;1.25;;
38435;SDS011;24220;48.168;14.024;2023-07-31T07:25:19;2.28;;;1.42;;
38435;SDS011;24220;48.168;14.024;2023-07-31T07:27:49;2.60;;;1.38;;
38435;SDS011;24220;48.168;14.024;2023-07-31T07:30:16;3.70;;;1.55;;
38435;SDS011;24220;48.168;14.024;2023-07-31T07:32:44;2.55;;;1.33;;
38435;SDS011;24220;48.168;14.024;2023-07-31T07:35:11;2.60;;;1.85;;
38435;SDS011;24220;48.168;14.024;2023-07-31T07:37:41;3.42;;;1.50;;
38435;SDS011;24220;48.168;14.024;2023-07-31T07:40:08;1.90;;;1.30;;
38435;SDS011;24220;48.168;14.024;2023-07-31T07:42:36;3.10;;;1.52;;
38435;SDS011;24220;48.168;14.024;2023-07-31T07:45:08;2.22;;;1.30;;
38435;SDS011;24220;48.168;14.024;2023-07-31T07:47:40;3.55;;;1.30;;
38435;SDS011;24220;48.168;14.024;2023-07-31T07:50:08;3.38;;;1.40;;
38435;SDS011;24220;48.168;14.024;2023-07-31T07:52:38;2.83;;;1.55;;
38435;SDS011;24220;48.168;14.024;2023-07-31T07:55:05;3.65;;;1.55;;
38435;SDS011;24220;48.168;14.024;2023-07-31T07:57:33;2.50;;;1.23;;
38435;SDS011;24220;48.168;14.024;2023-07-31T08:00:05;2.00;;;1.20;;
38435;SDS011;24220;48.168;14.024;2023-07-31T08:02:37;3.60;;;1.42;;
38435;SDS011;24220;48.168;14.024;2023-07-31T08:05:04;2.72;;;1.30;;
38435;SDS011;24220;48.168;14.024;2023-07-31T08:07:32;1.75;;;1.20;;
38435;SDS011;24220;48.168;14.024;2023-07-31T08:09:59;2.70;;;1.25;;
38435;SDS011;24220;48.168;14.024;2023-07-31T08:12:29;2.03;;;1.30;;
38435;SDS011;24220;48.168;14.024;2023-07-31T08:15:00;1.95;;;1.33;;
38435;SDS011;24220;48.168;14.024;2023-07-31T08:17:29;3.17;;;1.10;;
38435;SDS011;24220;48.168;14.024;2023-07-31T08:20:01;2.33;;;1.17;;
38435;SDS011;24220;48.168;14.024;2023-07-31T08:22:29;2.00;;;1.30;;
38435;SDS011;24220;48.168;14.024;2023-07-31T08:24:56;3.10;;;1.40;;
38435;SDS011;24220;48.168;14.024;2023-07-31T08:27:23;2.50;;;1.40;;
38435;SDS011;24220;48.168;14.024;2023-07-31T08:29:51;2.63;;;1.30;;
38435;SDS011;24220;48.168;14.024;2023-07-31T08:32:21;3.58;;;3.28;;
38435;SDS011;24220;48.168;14.024;2023-07-31T08:34:49;2.05;;;1.20;;
38435;SDS011;24220;48.168;14.024;2023-07-31T08:37:16;2.58;;;1.27;;
38435;SDS011;24220;48.168;14.024;2023-07-31T08:39:43;2.28;;;1.30;;
38435;SDS011;24220;48.168;14.024;2023-07-31T08:42:13;3.50;;;1.50;;
38435;SDS011;24220;48.168;14.024;2023-07-31T08:44:43;2.92;;;1.23;;
38435;SDS011;24220;48.168;14.024;2023-07-31T08:47:13;1.67;;;1.25;;
38435;SDS011;24220;48.168;14.024;2023-07-31T08:49:42;2.13;;;1.13;;
38435;SDS011;24220;48.168;14.024;2023-07-31T08:52:13;2.67;;;1.20;;
38435;SDS011;24220;48.168;14.024;2023-07-31T08:54:41;2.38;;;1.48;;
38435;SDS011;24220;48.168;14.024;2023-07-31T08:57:08;2.08;;;1.20;;
38435;SDS011;24220;48.168;14.024;2023-07-31T08:59:40;1.35;;;1.23;;
38435;SDS011;24220;48.168;14.024;2023-07-31T09:02:13;1.73;;;1.30;;
38435;SDS011;24220;48.168;14.024;2023-07-31T09:04:44;4.13;;;1.50;;
38435;SDS011;24220;48.168;14.024;2023-07-31T09:07:11;2.10;;;1.27;;
38435;SDS011;24220;48.168;14.024;2023-07-31T09:09:45;1.98;;;1.55;;
38435;SDS011;24220;48.168;14.024;2023-07-31T09:12:12;2.13;;;1.20;;
38435;SDS011;24220;48.168;14.024;2023-07-31T09:14:40;2.63;;;1.35;;
38435;SDS011;24220;48.168;14.024;2023-07-31T09:17:10;2.22;;;1.40;;
38435;SDS011;24220;48.168;14.024;2023-07-31T09:19:38;2.25;;;1.40;;
38435;SDS011;24220;48.168;14.024;2023-07-31T09:22:06;1.67;;;1.17;;
38435;SDS011;24220;48.168;14.024;2023-07-31T09:24:35;2.83;;;1.25;;
38435;SDS011;24220;48.168;14.024;2023-07-31T09:27:05;1.33;;;1.10;;
38435;SDS011;24220;48.168;14.024;2023-07-31T09:29:33;4.03;;;1.25;;
38435;SDS011;24220;48.168;14.024;2023-07-31T09:32:00;1.75;;;1.05;;
38435;SDS011;24220;48.168;14.024;2023-07-31T09:34:36;1.73;;;1.13;;
38435;SDS011;24220;48.168;14.024;2023-07-31T09:37:12;2.25;;;1.20;;
38435;SDS011;24220;48.168;14.024;2023-07-31T09:39:46;2.65;;;1.30;;
38435;SDS011;24220;48.168;14.024;2023-07-31T09:42:27;2.40;;;1.30;;
38435;SDS011;24220;48.168;14.024;2023-07-31T09:45:08;2.00;;;1.33;;
38435;SDS011;24220;48.168;14.024;2023-07-31T09:47:46;1.45;;;1.20;;
38435;SDS011;24220;48.168;14.024;2023-07-31T09:50:15;2.28;;;1.17;;
38435;SDS011;24220;48.168;14.024;2023-07-31T09:52:43;3.13;;;1.98;;
38435;SDS011;24220;48.168;14.024;2023-07-31T09:55:10;2.88;;;1.80;;
38435;SDS011;24220;48.168;14.024;2023-07-31T09:57:39;3.30;;;1.38;;
38435;SDS011;24220;48.168;14.024;2023-07-31T10:00:11;2.65;;;1.50;;
38435;SDS011;24220;48.168;14.024;2023-07-31T10:02:44;4.53;;;1.83;;
38435;SDS011;24220;48.168;14.024;2023-07-31T10:05:17;3.25;;;1.48;;
38435;SDS011;24220;48.168;14.024;2023-07-31T10:07:54;1.45;;;1.20;;
38435;SDS011;24220;48.168;14.024;2023-07-31T10:10:22;3.40;;;1.30;;
38435;SDS011;24220;48.168;14.024;2023-07-31T10:12:53;2.55;;;1.10;;
38435;SDS011;24220;48.168;14.024;2023-07-31T10:15:22;3.38;;;1.35;;
38435;SDS011;24220;48.168;14.024;2023-07-31T10:17:50;1.58;;;1.00;;
38435;SDS011;24220;48.168;14.024;2023-07-31T10:20:23;3.03;;;1.50;;
38435;SDS011;24220;48.168;14.024;2023-07-31T10:22:52;3.08;;;1.50;;
38435;SDS011;24220;48.168;14.024;2023-07-31T10:25:22;3.08;;;1.40;;
38435;SDS011;24220;48.168;14.024;2023-07-31T10:27:50;2.05;;;1.45;;
38435;SDS011;24220;48.168;14.024;2023-07-31T10:30:20;2.10;;;1.25;;
38435;SDS011;24220;48.168;14.024;2023-07-31T10:32:55;1.95;;;1.20;;
38435;SDS011;24220;48.168;14.024;2023-07-31T10:35:24;1.38;;;1.20;;
38435;SDS011;24220;48.168;14.024;2023-07-31T10:37:52;2.03;;;1.33;;
38435;SDS011;24220;48.168;14.024;2023-07-31T10:40:25;2.35;;;1.42;;
38435;SDS011;24220;48.168;14.024;2023-07-31T10:43:02;2.42;;;1.52;;
38435;SDS011;24220;48.168;14.024;2023-07-31T10:45:36;1.73;;;1.20;;
38435;SDS011;24220;48.168;14.024;2023-07-31T10:48:05;1.77;;;1.23;;
38435;SDS011;24220;48.168;14.024;2023-07-31T10:50:48;1.50;;;1.25;;
38435;SDS011;24220;48.168;14.024;2023-07-31T10:53:25;1.10;;;1.00;;
38435;SDS011;24220;48.168;14.024;2023-07-31T10:58:31;2.00;;;1.30;;
38435;SDS011;24220;48.168;14.024;2023-07-31T11:01:03;2.33;;;1.15;;
38435;SDS011;24220;48.168;14.024;2023-07-31T11:03:49;2.13;;;1.37;;
38435;SDS011;24220;48.168;14.024;2023-07-31T11:06:19;2.50;;;1.50;;
38435;SDS011;24220;48.168;14.024;2023-07-31T11:08:47;2.20;;;1.42;;
38435;SDS011;24220;48.168;14.024;2023-07-31T11:11:17;2.17;;;1.40;;
38435;SDS011;24220;48.168;14.024;2023-07-31T11:13:49;1.70;;;1.30;;
38435;SDS011;24220;48.168;14.024;2023-07-31T11:16:20;2.70;;;1.30;;
38435;SDS011;24220;48.168;14.024;2023-07-31T11:18:56;3.95;;;1.50;;
38435;SDS011;24220;48.168;14.024;2023-07-31T11:21:24;1.88;;;1.20;;
38435;SDS011;24220;48.168;14.024;2023-07-31T11:23:53;1.83;;;1.35;;
38435;SDS011;24220;48.168;14.024;2023-07-31T11:26:25;2.50;;;1.27;;
38435;SDS011;24220;48.168;14.024;2023-07-31T11:28:56;2.95;;;1.40;;
38435;SDS011;24220;48.168;14.024;2023-07-31T11:31:23;2.38;;;1.45;;
38435;SDS011;24220;48.168;14.024;2023-07-31T11:34:06;1.52;;;1.27;;
38435;SDS011;24220;48.168;14.024;2023-07-31T11:36:38;2.38;;;1.77;;
38435;SDS011;24220;48.168;14.024;2023-07-31T11:39:08;2.08;;;1.25;;
38435;SDS011;24220;48.168;14.024;2023-07-31T11:41:40;2.20;;;1.30;;
38435;SDS011;24220;48.168;14.024;2023-07-31T11:44:08;1.35;;;1.20;;
38435;SDS011;24220;48.168;14.024;2023-07-31T11:46:53;2.08;;;1.23;;
38435;SDS011;24220;48.168;14.024;2023-07-31T11:49:26;1.30;;;1.15;;
38435;SDS011;24220;48.168;14.024;2023-07-31T11:51:53;2.30;;;1.45;;
38435;SDS011;24220;48.168;14.024;2023-07-31T11:54:21;2.40;;;1.42;;
38435;SDS011;24220;48.168;14.024;2023-07-31T11:56:48;2.65;;;1.30;;
38435;SDS011;24220;48.168;14.024;2023-07-31T11:59:17;1.77;;;1.20;;
38435;SDS011;24220;48.168;14.024;2023-07-31T12:01:47;2.35;;;1.20;;
38435;SDS011;24220;48.168;14.024;2023-07-31T12:04:17;1.83;;;1.30;;
38435;SDS011;24220;48.168;14.024;2023-07-31T12:06:44;3.75;;;1.15;;
38435;SDS011;24220;48.168;14.024;2023-07-31T12:09:11;2.92;;;1.40;;
38435;SDS011;24220;48.168;14.024;2023-07-31T12:11:44;1.80;;;1.40;;
38435;SDS011;24220;48.168;14.024;2023-07-31T12:14:25;2.55;;;1.20;;
38435;SDS011;24220;48.168;14.024;2023-07-31T12:17:03;2.17;;;1.10;;
38435;SDS011;24220;48.168;14.024;2023-07-31T12:19:31;1.23;;;1.13;;
38435;SDS011;24220;48.168;14.024;2023-07-31T12:21:59;2.17;;;1.70;;
38435;SDS011;24220;48.168;14.024;2023-07-31T12:24:27;2.53;;;1.60;;
38435;SDS011;24220;48.168;14.024;2023-07-31T12:26:54;2.67;;;1.40;;
38435;SDS011;24220;48.168;14.024;2023-07-31T12:29:22;2.47;;;1.38;;
38435;SDS011;24220;48.168;14.024;2023-07-31T12:31:59;1.67;;;1.17;;
38435;SDS011;24220;48.168;14.024;2023-07-31T12:34:27;1.75;;;1.15;;
38435;SDS011;24220;48.168;14.024;2023-07-31T12:36:54;2.50;;;1.25;;
38435;SDS011;24220;48.168;14.024;2023-07-31T12:39:24;1.60;;;1.40;;
38435;SDS011;24220;48.168;14.024;2023-07-31T12:41:53;2.55;;;1.33;;
38435;SDS011;24220;48.168;14.024;2023-07-31T12:44:23;2.38;;;1.50;;
38435;SDS011;24220;48.168;14.024;2023-07-31T12:46:50;3.10;;;1.45;;
38435;SDS011;24220;48.168;14.024;2023-07-31T12:49:20;4.03;;;1.40;;
38435;SDS011;24220;48.168;14.024;2023-07-31T12:51:49;2.60;;;1.40;;
38435;SDS011;24220;48.168;14.024;2023-07-31T12:54:17;3.35;;;1.50;;
38435;SDS011;24220;48.168;14.024;2023-07-31T12:56:44;2.47;;;1.30;;
38435;SDS011;24220;48.168;14.024;2023-07-31T12:59:11;1.88;;;1.30;;
38435;SDS011;24220;48.168;14.024;2023-07-31T13:01:41;1.85;;;1.20;;
38435;SDS011;24220;48.168;14.024;2023-07-31T13:04:09;3.22;;;1.30;;
38435;SDS011;24220;48.168;14.024;2023-07-31T13:06:36;3.35;;;1.13;;
38435;SDS011;24220;48.168;14.024;2023-07-31T13:09:04;3.90;;;1.10;;
38435;SDS011;24220;48.168;14.024;2023-07-31T13:11:32;1.67;;;1.35;;
38435;SDS011;24220;48.168;14.024;2023-07-31T13:14:00;1.83;;;1.27;;
38435;SDS011;24220;48.168;14.024;2023-07-31T13:16:30;1.58;;;1.33;;
38435;SDS011;24220;48.168;14.024;2023-07-31T13:18:59;1.73;;;1.50;;
38435;SDS011;24220;48.168;14.024;2023-07-31T13:21:27;1.83;;;1.23;;
38435;SDS011;24220;48.168;14.024;2023-07-31T13:23:57;1.90;;;1.30;;
38435;SDS011;24220;48.168;14.024;2023-07-31T13:26:26;1.80;;;1.40;;
38435;SDS011;24220;48.168;14.024;2023-07-31T13:28:53;2.00;;;1.15;;
38435;SDS011;24220;48.168;14.024;2023-07-31T13:31:23;2.35;;;1.33;;
38435;SDS011;24220;48.168;14.024;2023-07-31T13:33:50;1.60;;;1.40;;
38435;SDS011;24220;48.168;14.024;2023-07-31T13:36:17;1.33;;;1.10;;
38435;SDS011;24220;48.168;14.024;2023-07-31T13:38:45;2.20;;;1.23;;
38435;SDS011;24220;48.168;14.024;2023-07-31T13:41:12;1.88;;;1.30;;
38435;SDS011;24220;48.168;14.024;2023-07-31T13:43:42;1.20;;;1.10;;
38435;SDS011;24220;48.168;14.024;2023-07-31T13:46:11;1.92;;;1.45;;
38435;SDS011;24220;48.168;14.024;2023-07-31T13:48:41;2.25;;;1.15;;
38435;SDS011;24220;48.168;14.024;2023-07-31T13:51:09;1.65;;;1.02;;
38435;SDS011;24220;48.168;14.024;2023-07-31T13:53:36;1.88;;;1.50;;
38435;SDS011;24220;48.168;14.024;2023-07-31T13:56:03;1.83;;;1.10;;
38435;SDS011;24220;48.168;14.024;2023-07-31T13:58:32;1.63;;;1.15;;
38435;SDS011;24220;48.168;14.024;2023-07-31T14:00:59;1.98;;;1.52;;
38435;SDS011;24220;48.168;14.024;2023-07-31T14:03:27;1.75;;;1.20;;
38435;SDS011;24220;48.168;14.024;2023-07-31T14:05:54;1.40;;;1.30;;
38435;SDS011;24220;48.168;14.024;2023-07-31T14:08:22;1.25;;;1.10;;
38435;SDS011;24220;48.168;14.024;2023-07-31T14:10:49;1.98;;;1.40;;
38435;SDS011;24220;48.168;14.024;2023-07-31T14:13:17;1.85;;;1.40;;
38435;SDS011;24220;48.168;14.024;2023-07-31T14:15:44;1.45;;;1.33;;
38435;SDS011;24220;48.168;14.024;2023-07-31T14:18:11;1.45;;;1.30;;
38435;SDS011;24220;48.168;14.024;2023-07-31T14:20:41;1.52;;;1.20;;
38435;SDS011;24220;48.168;14.024;2023-07-31T14:23:08;1.33;;;1.20;;
38435;SDS011;24220;48.168;14.024;2023-07-31T14:25:38;1.55;;;1.30;;
38435;SDS011;24220;48.168;14.024;2023-07-31T14:28:05;2.13;;;1.35;;
38435;SDS011;24220;48.168;14.024;2023-07-31T14:30:33;1.30;;;1.13;;
38435;SDS011;24220;48.168;14.024;2023-07-31T14:33:05;1.58;;;1.35;;
38435;SDS011;24220;48.168;14.024;2023-07-31T14:35:35;1.33;;;1.23;;
38435;SDS011;24220;48.168;14.024;2023-07-31T14:38:04;2.20;;;1.40;;
38435;SDS011;24220;48.168;14.024;2023-07-31T14:40:31;1.40;;;1.30;;
38435;SDS011;24220;48.168;14.024;2023-07-31T14:42:59;1.92;;;1.42;;
38435;SDS011;24220;48.168;14.024;2023-07-31T14:45:26;2.13;;;1.40;;
38435;SDS011;24220;48.168;14.024;2023-07-31T14:47:53;2.95;;;1.20;;
38435;SDS011;24220;48.168;14.024;2023-07-31T14:50:24;2.72;;;1.25;;
38435;SDS011;24220;48.168;14.024;2023-07-31T14:52:52;1.65;;;1.13;;
38435;SDS011;24220;48.168;14.024;2023-07-31T14:55:19;1.42;;;1.25;;
38435;SDS011;24220;48.168;14.024;2023-07-31T14:57:47;1.60;;;1.50;;
38435;SDS011;24220;48.168;14.024;2023-07-31T15:00:15;1.17;;;1.08;;
38435;SDS011;24220;48.168;14.024;2023-07-31T15:02:42;1.98;;;1.40;;